sensor_id;sensor_type;location;lat;lon;timestamp;P1;durP1;ratioP1;P2;durP2;ratioP2
15878;SDS011;61999;51.514;14.614;2023-01-13T00:01:36;2.40;;;2.20;;
15878;SDS011;61999;51.514;14.614;2023-01-13T00:04:05;2.50;;;2.10;;
15878;SDS011;61999;51.514;14.614;2023-01-13T00:06:33;2.37;;;2.00;;
15878;SDS011;61999;51.514;14.614;2023-01-13T00:09:01;2.10;;;1.90;;
15878;SDS011;61999;51.514;14.614;2023-01-13T00:11:31;1.90;;;1.80;;
15878;SDS011;61999;51.514;14.614;2023-01-13T00:13:59;1.73;;;1.63;;
15878;SDS011;61999;51.514;14.614;2023-01-13T00:16:27;2.23;;;1.60;;
15878;SDS011;61999;51.514;14.614;2023-01-13T00:18:55;1.93;;;1.70;;
15878;SDS011;61999;51.514;14.614;2023-01-13T00:21:24;1.70;;;1.60;;
15878;SDS011;61999;51.514;14.614;2023-01-13T00:23:53;2.00;;;1.80;;
15878;SDS011;61999;51.514;14.614;2023-01-13T00:26:22;2.50;;;2.10;;
15878;SDS011;61999;51.514;14.614;2023-01-13T00:28:56;3.40;;;2.00;;
15878;SDS011;61999;51.514;14.614;2023-01-13T00:31:25;4.93;;;2.00;;
15878;SDS011;61999;51.514;14.614;2023-01-13T00:33:56;3.60;;;2.10;;
15878;SDS011;61999;51.514;14.614;2023-01-13T00:36:25;2.13;;;1.90;;
15878;SDS011;61999;51.514;14.614;2023-01-13T00:38:56;2.60;;;2.37;;
15878;SDS011;61999;51.514;14.614;2023-01-13T00:41:25;2.60;;;1.90;;
15878;SDS011;61999;51.514;14.614;2023-01-13T00:43:55;2.87;;;2.07;;
15878;SDS011;61999;51.514;14.614;2023-01-13T00:46:22;2.10;;;2.00;;
15878;SDS011;61999;51.514;14.614;2023-01-13T00:48:50;1.90;;;1.80;;
15878;SDS011;61999;51.514;14.614;2023-01-13T00:51:19;2.30;;;1.87;;
15878;SDS011;61999;51.514;14.614;2023-01-13T00:53:49;5.40;;;2.13;;
15878;SDS011;61999;51.514;14.614;2023-01-13T00:56:18;1.97;;;1.77;;
15878;SDS011;61999;51.514;14.614;2023-01-13T00:59:05;2.07;;;1.60;;
15878;SDS011;61999;51.514;14.614;2023-01-13T01:01:36;1.97;;;1.87;;
15878;SDS011;61999;51.514;14.614;2023-01-13T01:04:04;1.80;;;1.70;;
15878;SDS011;61999;51.514;14.614;2023-01-13T01:06:33;2.80;;;1.77;;
15878;SDS011;61999;51.514;14.614;2023-01-13T01:09:02;1.60;;;1.50;;
15878;SDS011;61999;51.514;14.614;2023-01-13T01:11:32;2.37;;;1.57;;
15878;SDS011;61999;51.514;14.614;2023-01-13T01:14:01;2.70;;;1.80;;
15878;SDS011;61999;51.514;14.614;2023-01-13T01:16:32;1.70;;;1.23;;
15878;SDS011;61999;51.514;14.614;2023-01-13T01:19:01;1.73;;;1.63;;
15878;SDS011;61999;51.514;14.614;2023-01-13T01:21:30;1.83;;;1.70;;
15878;SDS011;61999;51.514;14.614;2023-01-13T01:24:00;1.57;;;1.47;;
15878;SDS011;61999;51.514;14.614;2023-01-13T01:26:30;3.07;;;1.70;;
15878;SDS011;61999;51.514;14.614;2023-01-13T01:28:59;1.97;;;1.60;;
15878;SDS011;61999;51.514;14.614;2023-01-13T01:31:29;1.53;;;1.43;;
15878;SDS011;61999;51.514;14.614;2023-01-13T01:33:59;1.83;;;1.60;;
15878;SDS011;61999;51.514;14.614;2023-01-13T01:36:28;4.00;;;1.90;;
15878;SDS011;61999;51.514;14.614;2023-01-13T01:38:57;2.03;;;1.50;;
15878;SDS011;61999;51.514;14.614;2023-01-13T01:41:27;3.37;;;1.70;;
15878;SDS011;61999;51.514;14.614;2023-01-13T01:43:59;3.17;;;1.63;;
15878;SDS011;61999;51.514;14.614;2023-01-13T01:46:34;2.27;;;1.70;;
15878;SDS011;61999;51.514;14.614;2023-01-13T01:49:07;2.00;;;1.60;;
15878;SDS011;61999;51.514;14.614;2023-01-13T01:51:45;1.70;;;1.53;;
15878;SDS011;61999;51.514;14.614;2023-01-13T01:54:20;1.90;;;1.53;;
15878;SDS011;61999;51.514;14.614;2023-01-13T01:56:55;2.40;;;1.53;;
15878;SDS011;61999;51.514;14.614;2023-01-13T01:59:24;1.37;;;1.27;;
15878;SDS011;61999;51.514;14.614;2023-01-13T02:02:00;1.97;;;1.57;;
15878;SDS011;61999;51.514;14.614;2023-01-13T02:04:29;2.20;;;1.30;;
15878;SDS011;61999;51.514;14.614;2023-01-13T02:07:05;1.40;;;1.10;;
15878;SDS011;61999;51.514;14.614;2023-01-13T02:09:34;1.40;;;1.00;;
15878;SDS011;61999;51.514;14.614;2023-01-13T02:12:03;1.40;;;1.30;;
15878;SDS011;61999;51.514;14.614;2023-01-13T02:14:49;1.20;;;1.10;;
15878;SDS011;61999;51.514;14.614;2023-01-13T02:17:24;2.03;;;1.20;;
15878;SDS011;61999;51.514;14.614;2023-01-13T02:20:47;1.80;;;1.30;;
15878;SDS011;61999;51.514;14.614;2023-01-13T02:23:51;1.40;;;1.10;;
15878;SDS011;61999;51.514;14.614;2023-01-13T02:30:25;1.30;;;1.10;;
15878;SDS011;61999;51.514;14.614;2023-01-13T02:33:30;2.00;;;1.13;;
15878;SDS011;61999;51.514;14.614;2023-01-13T02:36:10;1.87;;;1.10;;
15878;SDS011;61999;51.514;14.614;2023-01-13T02:38:50;1.10;;;1.00;;
15878;SDS011;61999;51.514;14.614;2023-01-13T02:41:26;1.20;;;1.10;;
15878;SDS011;61999;51.514;14.614;2023-01-13T02:44:19;1.33;;;1.00;;
15878;SDS011;61999;51.514;14.614;2023-01-13T02:46:57;1.17;;;1.10;;
15878;SDS011;61999;51.514;14.614;2023-01-13T02:49:33;1.20;;;1.10;;
15878;SDS011;61999;51.514;14.614;2023-01-13T02:52:07;1.10;;;1.00;;
15878;SDS011;61999;51.514;14.614;2023-01-13T02:54:43;1.93;;;1.10;;
15878;SDS011;61999;51.514;14.614;2023-01-13T02:57:17;1.80;;;1.20;;
15878;SDS011;61999;51.514;14.614;2023-01-13T02:59:48;1.47;;;1.37;;
15878;SDS011;61999;51.514;14.614;2023-01-13T03:02:21;1.93;;;1.47;;
15878;SDS011;61999;51.514;14.614;2023-01-13T03:04:53;1.43;;;1.10;;
15878;SDS011;61999;51.514;14.614;2023-01-13T03:10:31;1.83;;;1.20;;
15878;SDS011;61999;51.514;14.614;2023-01-13T03:13:25;2.00;;;1.37;;
15878;SDS011;61999;51.514;14.614;2023-01-13T03:16:13;2.77;;;1.57;;
15878;SDS011;61999;51.514;14.614;2023-01-13T03:18:58;2.43;;;1.30;;
15878;SDS011;61999;51.514;14.614;2023-01-13T03:21:42;3.73;;;1.73;;
15878;SDS011;61999;51.514;14.614;2023-01-13T03:24:21;2.10;;;1.30;;
15878;SDS011;61999;51.514;14.614;2023-01-13T03:26:59;1.53;;;1.43;;
15878;SDS011;61999;51.514;14.614;2023-01-13T03:29:37;1.77;;;1.30;;
15878;SDS011;61999;51.514;14.614;2023-01-13T03:32:12;1.53;;;1.43;;
15878;SDS011;61999;51.514;14.614;2023-01-13T03:34:51;2.73;;;1.57;;
15878;SDS011;61999;51.514;14.614;2023-01-13T03:37:27;1.63;;;1.30;;
15878;SDS011;61999;51.514;14.614;2023-01-13T03:40:06;1.80;;;1.70;;
15878;SDS011;61999;51.514;14.614;2023-01-13T03:42:41;1.90;;;1.50;;
15878;SDS011;61999;51.514;14.614;2023-01-13T03:45:29;2.00;;;1.47;;
15878;SDS011;61999;51.514;14.614;2023-01-13T03:48:02;3.70;;;1.40;;
15878;SDS011;61999;51.514;14.614;2023-01-13T03:50:37;2.17;;;1.60;;
15878;SDS011;61999;51.514;14.614;2023-01-13T03:53:15;1.73;;;1.40;;
15878;SDS011;61999;51.514;14.614;2023-01-13T03:55:50;3.40;;;1.37;;
15878;SDS011;61999;51.514;14.614;2023-01-13T03:58:24;1.57;;;1.33;;
15878;SDS011;61999;51.514;14.614;2023-01-13T04:01:00;2.07;;;1.50;;
15878;SDS011;61999;51.514;14.614;2023-01-13T04:03:37;1.97;;;1.30;;
15878;SDS011;61999;51.514;14.614;2023-01-13T04:06:14;1.47;;;1.37;;
15878;SDS011;61999;51.514;14.614;2023-01-13T04:08:59;1.77;;;1.17;;
15878;SDS011;61999;51.514;14.614;2023-01-13T04:11:36;1.30;;;1.20;;
15878;SDS011;61999;51.514;14.614;2023-01-13T04:14:10;1.33;;;1.10;;
15878;SDS011;61999;51.514;14.614;2023-01-13T04:16:42;1.40;;;1.07;;
15878;SDS011;61999;51.514;14.614;2023-01-13T04:19:10;1.83;;;1.27;;
15878;SDS011;61999;51.514;14.614;2023-01-13T04:21:39;1.83;;;1.30;;
15878;SDS011;61999;51.514;14.614;2023-01-13T04:24:08;1.30;;;1.20;;
15878;SDS011;61999;51.514;14.614;2023-01-13T04:26:36;2.20;;;1.20;;
15878;SDS011;61999;51.514;14.614;2023-01-13T04:29:04;0.90;;;0.90;;
15878;SDS011;61999;51.514;14.614;2023-01-13T04:31:33;2.60;;;1.43;;
15878;SDS011;61999;51.514;14.614;2023-01-13T04:34:01;1.60;;;1.30;;
15878;SDS011;61999;51.514;14.614;2023-01-13T04:36:29;0.90;;;0.90;;
15878;SDS011;61999;51.514;14.614;2023-01-13T04:38:59;4.40;;;1.20;;
15878;SDS011;61999;51.514;14.614;2023-01-13T04:41:28;1.83;;;1.20;;
15878;SDS011;61999;51.514;14.614;2023-01-13T04:44:20;1.80;;;1.20;;
15878;SDS011;61999;51.514;14.614;2023-01-13T04:46:50;1.63;;;1.50;;
15878;SDS011;61999;51.514;14.614;2023-01-13T04:49:19;1.33;;;1.00;;
15878;SDS011;61999;51.514;14.614;2023-01-13T04:51:47;1.20;;;1.10;;
15878;SDS011;61999;51.514;14.614;2023-01-13T04:54:16;1.80;;;1.00;;
15878;SDS011;61999;51.514;14.614;2023-01-13T04:56:44;1.10;;;0.97;;
15878;SDS011;61999;51.514;14.614;2023-01-13T04:59:12;2.77;;;1.10;;
15878;SDS011;61999;51.514;14.614;2023-01-13T05:01:41;1.80;;;0.97;;
15878;SDS011;61999;51.514;14.614;2023-01-13T05:04:09;1.33;;;0.93;;
15878;SDS011;61999;51.514;14.614;2023-01-13T05:06:40;1.37;;;1.27;;
15878;SDS011;61999;51.514;14.614;2023-01-13T05:09:09;1.00;;;0.73;;
15878;SDS011;61999;51.514;14.614;2023-01-13T05:11:39;1.00;;;1.00;;
15878;SDS011;61999;51.514;14.614;2023-01-13T05:14:25;1.23;;;0.80;;
15878;SDS011;61999;51.514;14.614;2023-01-13T05:17:11;1.33;;;1.00;;
15878;SDS011;61999;51.514;14.614;2023-01-13T05:19:47;2.90;;;1.50;;
15878;SDS011;61999;51.514;14.614;2023-01-13T05:22:15;1.40;;;1.30;;
15878;SDS011;61999;51.514;14.614;2023-01-13T05:25:02;0.87;;;0.70;;
15878;SDS011;61999;51.514;14.614;2023-01-13T05:27:54;1.70;;;1.60;;
15878;SDS011;61999;51.514;14.614;2023-01-13T05:30:30;1.80;;;1.00;;
15878;SDS011;61999;51.514;14.614;2023-01-13T05:33:03;1.60;;;1.50;;
15878;SDS011;61999;51.514;14.614;2023-01-13T05:35:32;4.30;;;4.00;;
15878;SDS011;61999;51.514;14.614;2023-01-13T05:38:00;13.77;;;12.47;;
15878;SDS011;61999;51.514;14.614;2023-01-13T05:40:28;11.23;;;10.07;;
15878;SDS011;61999;51.514;14.614;2023-01-13T05:43:16;2.90;;;2.60;;
15878;SDS011;61999;51.514;14.614;2023-01-13T05:45:46;2.23;;;1.33;;
15878;SDS011;61999;51.514;14.614;2023-01-13T05:48:17;3.47;;;3.00;;
15878;SDS011;61999;51.514;14.614;2023-01-13T05:50:48;8.83;;;7.90;;
15878;SDS011;61999;51.514;14.614;2023-01-13T05:53:17;10.97;;;7.23;;
15878;SDS011;61999;51.514;14.614;2023-01-13T05:55:47;10.83;;;8.60;;
15878;SDS011;61999;51.514;14.614;2023-01-13T05:58:17;7.70;;;4.80;;
15878;SDS011;61999;51.514;14.614;2023-01-13T06:00:48;3.10;;;2.00;;
15878;SDS011;61999;51.514;14.614;2023-01-13T06:03:16;4.43;;;2.50;;
15878;SDS011;61999;51.514;14.614;2023-01-13T06:05:46;7.00;;;3.30;;
15878;SDS011;61999;51.514;14.614;2023-01-13T06:08:17;3.77;;;2.60;;
15878;SDS011;61999;51.514;14.614;2023-01-13T06:10:45;5.07;;;3.03;;
15878;SDS011;61999;51.514;14.614;2023-01-13T06:13:13;2.27;;;1.67;;
15878;SDS011;61999;51.514;14.614;2023-01-13T06:15:42;2.03;;;1.30;;
15878;SDS011;61999;51.514;14.614;2023-01-13T06:18:10;2.00;;;1.30;;
15878;SDS011;61999;51.514;14.614;2023-01-13T06:20:39;3.10;;;2.57;;
15878;SDS011;61999;51.514;14.614;2023-01-13T06:23:07;4.53;;;2.50;;
15878;SDS011;61999;51.514;14.614;2023-01-13T06:25:40;3.40;;;2.30;;
15878;SDS011;61999;51.514;14.614;2023-01-13T06:28:16;9.47;;;4.73;;
15878;SDS011;61999;51.514;14.614;2023-01-13T06:30:47;3.97;;;2.97;;
15878;SDS011;61999;51.514;14.614;2023-01-13T06:33:22;3.13;;;2.10;;
15878;SDS011;61999;51.514;14.614;2023-01-13T06:35:57;7.33;;;3.93;;
15878;SDS011;61999;51.514;14.614;2023-01-13T06:38:30;6.13;;;3.33;;
15878;SDS011;61999;51.514;14.614;2023-01-13T06:41:05;2.27;;;1.97;;
15878;SDS011;61999;51.514;14.614;2023-01-13T06:43:34;1.63;;;1.53;;
15878;SDS011;61999;51.514;14.614;2023-01-13T06:46:05;1.97;;;1.80;;
15878;SDS011;61999;51.514;14.614;2023-01-13T06:48:33;2.87;;;1.93;;
15878;SDS011;61999;51.514;14.614;2023-01-13T06:51:01;2.37;;;1.80;;
15878;SDS011;61999;51.514;14.614;2023-01-13T06:53:31;1.73;;;1.63;;
15878;SDS011;61999;51.514;14.614;2023-01-13T06:55:59;2.00;;;1.73;;
15878;SDS011;61999;51.514;14.614;2023-01-13T06:58:30;2.27;;;2.07;;
15878;SDS011;61999;51.514;14.614;2023-01-13T07:00:58;1.40;;;1.30;;
15878;SDS011;61999;51.514;14.614;2023-01-13T07:03:28;1.70;;;1.40;;
15878;SDS011;61999;51.514;14.614;2023-01-13T07:05:56;2.00;;;1.70;;
15878;SDS011;61999;51.514;14.614;2023-01-13T07:08:25;1.60;;;1.50;;
15878;SDS011;61999;51.514;14.614;2023-01-13T07:10:53;2.60;;;1.40;;
15878;SDS011;61999;51.514;14.614;2023-01-13T07:13:21;1.60;;;1.50;;
15878;SDS011;61999;51.514;14.614;2023-01-13T07:16:07;2.13;;;1.90;;
15878;SDS011;61999;51.514;14.614;2023-01-13T07:18:37;1.80;;;1.60;;
15878;SDS011;61999;51.514;14.614;2023-01-13T07:21:06;1.70;;;1.60;;
15878;SDS011;61999;51.514;14.614;2023-01-13T07:23:37;2.60;;;1.83;;
15878;SDS011;61999;51.514;14.614;2023-01-13T07:26:07;2.37;;;2.17;;
15878;SDS011;61999;51.514;14.614;2023-01-13T07:28:37;2.17;;;1.90;;
15878;SDS011;61999;51.514;14.614;2023-01-13T07:31:12;2.20;;;2.10;;
15878;SDS011;61999;51.514;14.614;2023-01-13T07:33:44;1.80;;;1.70;;
15878;SDS011;61999;51.514;14.614;2023-01-13T07:36:13;2.10;;;1.90;;
15878;SDS011;61999;51.514;14.614;2023-01-13T07:38:42;1.60;;;1.47;;
15878;SDS011;61999;51.514;14.614;2023-01-13T07:41:10;2.00;;;1.53;;
15878;SDS011;61999;51.514;14.614;2023-01-13T07:43:58;2.90;;;1.53;;
15878;SDS011;61999;51.514;14.614;2023-01-13T07:46:30;1.83;;;1.73;;
15878;SDS011;61999;51.514;14.614;2023-01-13T07:48:59;4.60;;;4.00;;
15878;SDS011;61999;51.514;14.614;2023-01-13T07:51:27;3.20;;;1.43;;
15878;SDS011;61999;51.514;14.614;2023-01-13T07:53:55;1.50;;;1.40;;
15878;SDS011;61999;51.514;14.614;2023-01-13T07:56:23;1.73;;;1.63;;
15878;SDS011;61999;51.514;14.614;2023-01-13T07:58:51;2.60;;;2.33;;
15878;SDS011;61999;51.514;14.614;2023-01-13T08:01:19;2.10;;;1.90;;
15878;SDS011;61999;51.514;14.614;2023-01-13T08:03:48;3.97;;;3.00;;
15878;SDS011;61999;51.514;14.614;2023-01-13T08:06:17;7.33;;;4.03;;
15878;SDS011;61999;51.514;14.614;2023-01-13T08:08:45;3.67;;;3.07;;
15878;SDS011;61999;51.514;14.614;2023-01-13T08:11:13;2.10;;;1.80;;
15878;SDS011;61999;51.514;14.614;2023-01-13T08:13:41;3.60;;;2.10;;
15878;SDS011;61999;51.514;14.614;2023-01-13T08:16:10;1.40;;;1.30;;
15878;SDS011;61999;51.514;14.614;2023-01-13T08:18:41;1.70;;;1.47;;
15878;SDS011;61999;51.514;14.614;2023-01-13T08:21:10;1.73;;;1.23;;
15878;SDS011;61999;51.514;14.614;2023-01-13T08:23:42;2.20;;;2.00;;
15878;SDS011;61999;51.514;14.614;2023-01-13T08:26:12;2.27;;;2.07;;
15878;SDS011;61999;51.514;14.614;2023-01-13T08:28:42;2.40;;;1.63;;
15878;SDS011;61999;51.514;14.614;2023-01-13T08:31:12;2.00;;;1.80;;
15878;SDS011;61999;51.514;14.614;2023-01-13T08:33:45;2.77;;;2.53;;
15878;SDS011;61999;51.514;14.614;2023-01-13T08:36:13;1.80;;;1.40;;
15878;SDS011;61999;51.514;14.614;2023-01-13T08:38:42;3.30;;;2.60;;
15878;SDS011;61999;51.514;14.614;2023-01-13T08:41:12;2.30;;;1.80;;
15878;SDS011;61999;51.514;14.614;2023-01-13T08:44:02;2.70;;;2.50;;
15878;SDS011;61999;51.514;14.614;2023-01-13T08:46:32;3.40;;;3.10;;
15878;SDS011;61999;51.514;14.614;2023-01-13T08:49:00;4.10;;;3.70;;
15878;SDS011;61999;51.514;14.614;2023-01-13T08:51:28;2.53;;;2.27;;
15878;SDS011;61999;51.514;14.614;2023-01-13T08:53:57;2.37;;;1.63;;
15878;SDS011;61999;51.514;14.614;2023-01-13T08:56:25;2.73;;;1.77;;
15878;SDS011;61999;51.514;14.614;2023-01-13T08:58:56;3.60;;;2.07;;
15878;SDS011;61999;51.514;14.614;2023-01-13T09:01:24;1.47;;;1.07;;
15878;SDS011;61999;51.514;14.614;2023-01-13T09:03:53;1.10;;;1.00;;
15878;SDS011;61999;51.514;14.614;2023-01-13T09:06:21;1.67;;;1.57;;
15878;SDS011;61999;51.514;14.614;2023-01-13T09:08:49;2.30;;;1.90;;
15878;SDS011;61999;51.514;14.614;2023-01-13T09:11:20;2.87;;;2.30;;
15878;SDS011;61999;51.514;14.614;2023-01-13T09:14:17;2.83;;;2.20;;
15878;SDS011;61999;51.514;14.614;2023-01-13T09:16:47;3.00;;;2.17;;
15878;SDS011;61999;51.514;14.614;2023-01-13T09:19:15;1.40;;;1.30;;
15878;SDS011;61999;51.514;14.614;2023-01-13T09:21:43;1.40;;;1.30;;
15878;SDS011;61999;51.514;14.614;2023-01-13T09:24:11;4.80;;;4.37;;
15878;SDS011;61999;51.514;14.614;2023-01-13T09:26:41;1.40;;;1.30;;
15878;SDS011;61999;51.514;14.614;2023-01-13T09:29:09;1.07;;;1.07;;
15878;SDS011;61999;51.514;14.614;2023-01-13T09:31:37;1.50;;;1.27;;
15878;SDS011;61999;51.514;14.614;2023-01-13T09:34:15;1.30;;;1.20;;
15878;SDS011;61999;51.514;14.614;2023-01-13T09:37:05;1.40;;;1.30;;
15878;SDS011;61999;51.514;14.614;2023-01-13T09:39:34;3.40;;;1.60;;
15878;SDS011;61999;51.514;14.614;2023-01-13T09:42:09;1.50;;;1.40;;
15878;SDS011;61999;51.514;14.614;2023-01-13T09:45:08;2.67;;;1.40;;
15878;SDS011;61999;51.514;14.614;2023-01-13T09:47:45;2.87;;;2.67;;
15878;SDS011;61999;51.514;14.614;2023-01-13T09:50:25;2.07;;;1.90;;
15878;SDS011;61999;51.514;14.614;2023-01-13T09:53:09;2.00;;;1.23;;
15878;SDS011;61999;51.514;14.614;2023-01-13T09:55:48;2.80;;;2.43;;
15878;SDS011;61999;51.514;14.614;2023-01-13T09:58:17;1.50;;;1.40;;
15878;SDS011;61999;51.514;14.614;2023-01-13T10:00:48;0.83;;;0.83;;
15878;SDS011;61999;51.514;14.614;2023-01-13T10:03:32;0.60;;;0.60;;
15878;SDS011;61999;51.514;14.614;2023-01-13T10:06:04;0.40;;;0.40;;
15878;SDS011;61999;51.514;14.614;2023-01-13T10:08:42;0.73;;;0.40;;
15878;SDS011;61999;51.514;14.614;2023-01-13T10:11:13;0.40;;;0.40;;
15878;SDS011;61999;51.514;14.614;2023-01-13T10:14:09;1.17;;;0.90;;
15878;SDS011;61999;51.514;14.614;2023-01-13T10:16:45;0.63;;;0.63;;
15878;SDS011;61999;51.514;14.614;2023-01-13T10:19:24;0.40;;;0.40;;
15878;SDS011;61999;51.514;14.614;2023-01-13T10:22:11;1.20;;;0.60;;
15878;SDS011;61999;51.514;14.614;2023-01-13T10:24:52;0.50;;;0.50;;
15878;SDS011;61999;51.514;14.614;2023-01-13T10:27:46;0.37;;;0.37;;
15878;SDS011;61999;51.514;14.614;2023-01-13T10:30:19;0.70;;;0.60;;
15878;SDS011;61999;51.514;14.614;2023-01-13T10:32:54;0.60;;;0.60;;
15878;SDS011;61999;51.514;14.614;2023-01-13T10:38:21;0.60;;;0.50;;
15878;SDS011;61999;51.514;14.614;2023-01-13T10:40:53;0.50;;;0.50;;
15878;SDS011;61999;51.514;14.614;2023-01-13T10:43:24;0.40;;;0.40;;
15878;SDS011;61999;51.514;14.614;2023-01-13T10:45:59;0.50;;;0.50;;
15878;SDS011;61999;51.514;14.614;2023-01-13T10:48:33;1.07;;;0.50;;
15878;SDS011;61999;51.514;14.614;2023-01-13T10:51:09;2.30;;;0.50;;
15878;SDS011;61999;51.514;14.614;2023-01-13T10:53:51;1.33;;;0.70;;
15878;SDS011;61999;51.514;14.614;2023-01-13T10:56:24;1.20;;;0.50;;
15878;SDS011;61999;51.514;14.614;2023-01-13T10:59:08;1.57;;;0.60;;
15878;SDS011;61999;51.514;14.614;2023-01-13T11:01:51;0.40;;;0.40;;
15878;SDS011;61999;51.514;14.614;2023-01-13T11:04:30;0.47;;;0.40;;
15878;SDS011;61999;51.514;14.614;2023-01-13T11:07:03;1.60;;;0.43;;
15878;SDS011;61999;51.514;14.614;2023-01-13T11:09:44;0.80;;;0.60;;
15878;SDS011;61999;51.514;14.614;2023-01-13T11:12:27;0.60;;;0.50;;
15878;SDS011;61999;51.514;14.614;2023-01-13T11:14:59;1.27;;;1.13;;
15878;SDS011;61999;51.514;14.614;2023-01-13T11:17:37;0.53;;;0.53;;
15878;SDS011;61999;51.514;14.614;2023-01-13T11:20:14;2.43;;;0.53;;
15878;SDS011;61999;51.514;14.614;2023-01-13T11:22:54;1.00;;;0.40;;
15878;SDS011;61999;51.514;14.614;2023-01-13T11:25:28;0.70;;;0.70;;
15878;SDS011;61999;51.514;14.614;2023-01-13T11:28:15;1.03;;;0.70;;
15878;SDS011;61999;51.514;14.614;2023-01-13T11:31:07;0.90;;;0.90;;
15878;SDS011;61999;51.514;14.614;2023-01-13T11:33:45;0.80;;;0.80;;
15878;SDS011;61999;51.514;14.614;2023-01-13T11:36:22;0.67;;;0.60;;
15878;SDS011;61999;51.514;14.614;2023-01-13T11:38:55;0.60;;;0.60;;
15878;SDS011;61999;51.514;14.614;2023-01-13T11:41:39;0.60;;;0.60;;
15878;SDS011;61999;51.514;14.614;2023-01-13T11:44:13;0.77;;;0.50;;
15878;SDS011;61999;51.514;14.614;2023-01-13T11:46:49;2.33;;;0.50;;
15878;SDS011;61999;51.514;14.614;2023-01-13T11:49:23;0.60;;;0.53;;
15878;SDS011;61999;51.514;14.614;2023-01-13T11:51:56;0.63;;;0.63;;
15878;SDS011;61999;51.514;14.614;2023-01-13T11:54:41;1.13;;;0.70;;
15878;SDS011;61999;51.514;14.614;2023-01-13T11:57:34;3.60;;;0.70;;
15878;SDS011;61999;51.514;14.614;2023-01-13T12:00:27;2.00;;;1.03;;
15878;SDS011;61999;51.514;14.614;2023-01-13T12:03:16;1.57;;;1.20;;
15878;SDS011;61999;51.514;14.614;2023-01-13T12:06:07;3.63;;;1.10;;
15878;SDS011;61999;51.514;14.614;2023-01-13T12:08:57;2.00;;;1.57;;
15878;SDS011;61999;51.514;14.614;2023-01-13T12:11:45;1.23;;;0.70;;
15878;SDS011;61999;51.514;14.614;2023-01-13T12:15:02;0.70;;;0.70;;
15878;SDS011;61999;51.514;14.614;2023-01-13T12:21:20;0.93;;;0.50;;
15878;SDS011;61999;51.514;14.614;2023-01-13T12:23:58;0.80;;;0.80;;
15878;SDS011;61999;51.514;14.614;2023-01-13T12:26:39;0.83;;;0.60;;
15878;SDS011;61999;51.514;14.614;2023-01-13T12:29:14;1.70;;;0.60;;
15878;SDS011;61999;51.514;14.614;2023-01-13T12:31:45;1.83;;;0.67;;
15878;SDS011;61999;51.514;14.614;2023-01-13T12:34:21;1.43;;;0.83;;
15878;SDS011;61999;51.514;14.614;2023-01-13T12:37:06;2.20;;;1.07;;
15878;SDS011;61999;51.514;14.614;2023-01-13T12:39:49;2.23;;;0.70;;
15878;SDS011;61999;51.514;14.614;2023-01-13T12:42:38;0.93;;;0.60;;
15878;SDS011;61999;51.514;14.614;2023-01-13T12:45:35;0.50;;;0.50;;
15878;SDS011;61999;51.514;14.614;2023-01-13T12:48:03;0.47;;;0.47;;
15878;SDS011;61999;51.514;14.614;2023-01-13T12:50:36;0.70;;;0.70;;
15878;SDS011;61999;51.514;14.614;2023-01-13T12:53:29;1.33;;;0.60;;
15878;SDS011;61999;51.514;14.614;2023-01-13T13:02:28;1.57;;;0.50;;
15878;SDS011;61999;51.514;14.614;2023-01-13T13:08:25;1.80;;;0.57;;
15878;SDS011;61999;51.514;14.614;2023-01-13T13:11:18;1.03;;;0.50;;
15878;SDS011;61999;51.514;14.614;2023-01-13T13:17:40;1.43;;;0.70;;
15878;SDS011;61999;51.514;14.614;2023-01-13T13:23:35;2.23;;;0.60;;
15878;SDS011;61999;51.514;14.614;2023-01-13T13:26:30;1.23;;;0.60;;
15878;SDS011;61999;51.514;14.614;2023-01-13T13:29:24;1.00;;;0.50;;
15878;SDS011;61999;51.514;14.614;2023-01-13T13:32:13;0.20;;;0.20;;
15878;SDS011;61999;51.514;14.614;2023-01-13T13:35:26;4.47;;;1.10;;
15878;SDS011;61999;51.514;14.614;2023-01-13T13:38:16;2.20;;;0.50;;
15878;SDS011;61999;51.514;14.614;2023-01-13T13:41:20;2.20;;;0.73;;
15878;SDS011;61999;51.514;14.614;2023-01-13T13:44:10;1.37;;;0.47;;
15878;SDS011;61999;51.514;14.614;2023-01-13T13:47:03;0.70;;;0.40;;
15878;SDS011;61999;51.514;14.614;2023-01-13T13:49:34;1.27;;;0.50;;
15878;SDS011;61999;51.514;14.614;2023-01-13T13:52:08;2.00;;;0.60;;
15878;SDS011;61999;51.514;14.614;2023-01-13T13:54:46;2.47;;;0.43;;
15878;SDS011;61999;51.514;14.614;2023-01-13T13:57:19;0.37;;;0.37;;
15878;SDS011;61999;51.514;14.614;2023-01-13T13:59:56;1.00;;;0.60;;
15878;SDS011;61999;51.514;14.614;2023-01-13T14:02:27;1.00;;;0.50;;
15878;SDS011;61999;51.514;14.614;2023-01-13T14:05:14;1.73;;;0.70;;
15878;SDS011;61999;51.514;14.614;2023-01-13T14:07:50;1.13;;;0.60;;
15878;SDS011;61999;51.514;14.614;2023-01-13T14:10:29;0.80;;;0.50;;
15878;SDS011;61999;51.514;14.614;2023-01-13T14:13:01;0.73;;;0.60;;
15878;SDS011;61999;51.514;14.614;2023-01-13T14:15:41;3.20;;;0.80;;
15878;SDS011;61999;51.514;14.614;2023-01-13T14:18:11;1.70;;;0.60;;
15878;SDS011;61999;51.514;14.614;2023-01-13T14:20:42;0.70;;;0.60;;
15878;SDS011;61999;51.514;14.614;2023-01-13T14:23:18;6.03;;;0.83;;
15878;SDS011;61999;51.514;14.614;2023-01-13T14:25:53;2.30;;;0.67;;
15878;SDS011;61999;51.514;14.614;2023-01-13T14:28:29;2.47;;;0.67;;
15878;SDS011;61999;51.514;14.614;2023-01-13T14:31:03;1.73;;;0.70;;
15878;SDS011;61999;51.514;14.614;2023-01-13T14:33:35;3.13;;;1.10;;
15878;SDS011;61999;51.514;14.614;2023-01-13T14:36:06;0.80;;;0.60;;
15878;SDS011;61999;51.514;14.614;2023-01-13T14:38:42;0.47;;;0.47;;
15878;SDS011;61999;51.514;14.614;2023-01-13T14:41:15;0.60;;;0.60;;
15878;SDS011;61999;51.514;14.614;2023-01-13T14:43:53;0.53;;;0.50;;
15878;SDS011;61999;51.514;14.614;2023-01-13T14:46:34;0.50;;;0.50;;
15878;SDS011;61999;51.514;14.614;2023-01-13T14:49:04;1.40;;;0.67;;
15878;SDS011;61999;51.514;14.614;2023-01-13T14:51:49;1.23;;;0.80;;
15878;SDS011;61999;51.514;14.614;2023-01-13T14:54:38;1.83;;;1.23;;
15878;SDS011;61999;51.514;14.614;2023-01-13T14:57:12;0.87;;;0.50;;
15878;SDS011;61999;51.514;14.614;2023-01-13T14:59:55;1.63;;;0.70;;
15878;SDS011;61999;51.514;14.614;2023-01-13T15:02:38;1.77;;;0.60;;
15878;SDS011;61999;51.514;14.614;2023-01-13T15:05:30;0.93;;;0.50;;
15878;SDS011;61999;51.514;14.614;2023-01-13T15:11:06;0.60;;;0.60;;
15878;SDS011;61999;51.514;14.614;2023-01-13T15:13:51;1.53;;;0.60;;
15878;SDS011;61999;51.514;14.614;2023-01-13T15:16:28;1.10;;;0.60;;
15878;SDS011;61999;51.514;14.614;2023-01-13T15:18:59;2.13;;;1.13;;
15878;SDS011;61999;51.514;14.614;2023-01-13T15:21:29;3.03;;;0.80;;
15878;SDS011;61999;51.514;14.614;2023-01-13T15:23:58;1.33;;;0.80;;
15878;SDS011;61999;51.514;14.614;2023-01-13T15:26:28;1.20;;;0.60;;
15878;SDS011;61999;51.514;14.614;2023-01-13T15:29:00;2.50;;;0.73;;
15878;SDS011;61999;51.514;14.614;2023-01-13T15:31:32;2.30;;;0.80;;
15878;SDS011;61999;51.514;14.614;2023-01-13T15:34:01;1.67;;;0.70;;
15878;SDS011;61999;51.514;14.614;2023-01-13T15:36:30;1.33;;;0.80;;
15878;SDS011;61999;51.514;14.614;2023-01-13T15:39:02;1.03;;;0.80;;
15878;SDS011;61999;51.514;14.614;2023-01-13T15:41:31;3.37;;;0.93;;
15878;SDS011;61999;51.514;14.614;2023-01-13T15:44:16;4.27;;;1.30;;
15878;SDS011;61999;51.514;14.614;2023-01-13T15:47:04;4.93;;;2.17;;
15878;SDS011;61999;51.514;14.614;2023-01-13T15:49:35;3.83;;;2.20;;
15878;SDS011;61999;51.514;14.614;2023-01-13T15:52:12;2.00;;;1.20;;
15878;SDS011;61999;51.514;14.614;2023-01-13T15:54:49;1.33;;;0.90;;